Detall de PIREP

Printer-friendly versionPDF version

[2009/10/16 07:02:00]
Flight IATA:CT2105
Pilot Number:041
Company ICAO:CAT
Aircraft Type:AT72/F
PAX:49
Departing Airport: LEBB
Destination Airport: LEVC
Alternate Airport:LEAL
Online: VATSIM
Route:AMTOS3B VRA B11 DGO B11 GASMO B11 OSTIX B11 RBO B11 HORTA A33 CJN A33 PRADO A33 CENTA1D


Flight Level:FL190
No Slew and time accel
No pause
Crash detect
Detect pilot in Cockpit between each 30 and 45 minutes
07:02 Zero fuel Weight: 40637 Lbs, Fuel Weight: 4422 Lbs
07:02 VATSIM:LEBB 160630Z 09004KT CAVOK 02/00 Q1029 NOSIG
07:02 VATSIM:LEVC 160630Z 02006KT 350V050 8000 -RA SCT018 BKN030 15/12 Q1020 NOSIG
07:03 VOICE CATALONIAN
07:04 Parking Brakes off
07:10 Take-off
07:10 Take off Weight: 44985 Lbs
07:10 Wind: 094º @ 003 Knots Heading: 115º
07:10 POS N43º 17´ 59´´ W002º 54´ 25´´
07:10 Gear Up: 135 Knots
07:10 Flaps:1 at 135 Knots
07:10 Flaps:0 at 150 Knots
07:25 Wind:
031º@018 Knots Heading: 132º Ground Speed: 288 Knots Altitude 15059 ft
07:28 TOC
07:28 Fuel Weight: 3618 Lb
07:40 Wind:001º@014 Knots Heading: 190º Ground Speed: 308 Knots Altitude 19363 ft
07:48 TOD
07:48 Fuel Weight: 3011 Lb
07:55 Wind:021º@017 Knots Heading: 113º Ground Speed: 293 Knots Altitude 18261 ft
08:10 Wind:112º@008 Knots Heading: 118º Ground Speed: 256 Knots Altitude 7283 ft
08:21 Flaps:1 at 173 Knots
08:21 Flaps:2 at 153 Knots
08:22 Gear Down: 150 Knots
08:24 TouchDown:Rate -122 ft/min Speed: 100 Knots
08:25 Wind:073º@004 Knots Heading: 116º Ground Speed: 089 Knots Altitude 229 ft
08:25 VATSIM:LEVC 160800Z VRB05KT 9999 SCT025 BKN040 14/12 Q1022 NOSIG
08:25 Land
08:25 Wind:073º@004 Knots
08:25 Heading: 117º
08:25 Flight Duration: 01:15
08:25 Landing Weight: 42867 Lbs
08:25 POS N39º 29´ 15´´ W000º 28´ 38´´
08:27 Parking brakes on
08:27 Block t
o Block Duration: 01:23
08:27 Final Fuel: 2208 Lbls
08:27 Spent Fuel: 2213 Lbls
08:27 Flight Length: 335 NM
08:27 TOD Land Length: 153 NM

Exportar CSV

Powered by Drupal - Modified by Danger4k